sensor_id;sensor_type;location;lat;lon;timestamp;pressure;altitude;pressure_sealevel;temperature;humidity
56825;BME280;42705;50.326;18.772;2022-07-11T00:02:15;98655.66;;;14.79;60.20
56825;BME280;42705;50.326;18.772;2022-07-11T00:07:37;98656.42;;;14.67;60.40
56825;BME280;42705;50.326;18.772;2022-07-11T00:12:58;98654.92;;;14.65;60.68
56825;BME280;42705;50.326;18.772;2022-07-11T00:18:19;98646.53;;;14.61;60.88
56825;BME280;42705;50.326;18.772;2022-07-11T00:23:40;98653.41;;;14.58;60.97
56825;BME280;42705;50.326;18.772;2022-07-11T00:29:01;98649.12;;;14.53;61.13
56825;BME280;42705;50.326;18.772;2022-07-11T00:34:23;98650.63;;;14.55;61.40
56825;BME280;42705;50.326;18.772;2022-07-11T00:39:44;98646.20;;;14.60;61.47
56825;BME280;42705;50.326;18.772;2022-07-11T00:45:06;98651.47;;;14.60;61.41
56825;BME280;42705;50.326;18.772;2022-07-11T00:50:27;98647.98;;;14.51;61.33
56825;BME280;42705;50.326;18.772;2022-07-11T00:55:50;98652.53;;;14.37;61.40
56825;BME280;42705;50.326;18.772;2022-07-11T01:01:13;98649.40;;;14.29;61.78
56825;BME280;42705;50.326;18.772;2022-07-11T01:06:34;98649.55;;;14.27;61.95
56825;BME280;42705;50.326;18.772;2022-07-11T01:11:55;98649.72;;;14.26;62.05
56825;BME280;42705;50.326;18.772;2022-07-11T01:17:16;98647.88;;;14.22;62.20
56825;BME280;42705;50.326;18.772;2022-07-11T01:22:40;98648.72;;;14.23;62.35
56825;BME280;42705;50.326;18.772;2022-07-11T01:28:08;98639.44;;;14.14;62.49
56825;BME280;42705;50.326;18.772;2022-07-11T01:33:34;98641.05;;;14.03;62.59
56825;BME280;42705;50.326;18.772;2022-07-11T01:38:54;98633.78;;;13.97;62.88
56825;BME280;42705;50.326;18.772;2022-07-11T01:44:15;98627.83;;;13.91;63.16
56825;BME280;42705;50.326;18.772;2022-07-11T01:49:36;98627.15;;;13.84;63.47
56825;BME280;42705;50.326;18.772;2022-07-11T01:54:57;98626.66;;;13.89;63.81
56825;BME280;42705;50.326;18.772;2022-07-11T02:00:18;98625.55;;;13.96;63.90
56825;BME280;42705;50.326;18.772;2022-07-11T02:05:38;98622.42;;;14.00;63.97
56825;BME280;42705;50.326;18.772;2022-07-11T02:10:59;98620.95;;;13.98;64.03
56825;BME280;42705;50.326;18.772;2022-07-11T02:16:20;98624.69;;;13.91;64.22
56825;BME280;42705;50.326;18.772;2022-07-11T02:21:42;98624.53;;;13.88;64.46
56825;BME280;42705;50.326;18.772;2022-07-11T02:27:04;98627.83;;;13.91;64.73
56825;BME280;42705;50.326;18.772;2022-07-11T02:32:25;98624.88;;;13.94;64.95
56825;BME280;42705;50.326;18.772;2022-07-11T02:37:46;98623.27;;;14.01;65.08
56825;BME280;42705;50.326;18.772;2022-07-11T02:43:07;98626.42;;;14.04;65.10
56825;BME280;42705;50.326;18.772;2022-07-11T02:48:28;98624.12;;;14.06;65.01
56825;BME280;42705;50.326;18.772;2022-07-11T02:53:49;98625.25;;;14.03;65.01
56825;BME280;42705;50.326;18.772;2022-07-11T02:59:10;98627.89;;;14.07;64.98
56825;BME280;42705;50.326;18.772;2022-07-11T03:04:32;98634.81;;;14.08;64.96
56825;BME280;42705;50.326;18.772;2022-07-11T03:09:53;98637.63;;;14.07;64.92
56825;BME280;42705;50.326;18.772;2022-07-11T03:15:15;98636.45;;;14.05;65.02
56825;BME280;42705;50.326;18.772;2022-07-11T03:20:36;98635.10;;;13.97;65.05
56825;BME280;42705;50.326;18.772;2022-07-11T03:25:57;98644.97;;;13.95;65.22
56825;BME280;42705;50.326;18.772;2022-07-11T03:31:18;98645.58;;;13.84;65.03
56825;BME280;42705;50.326;18.772;2022-07-11T03:36:39;98638.24;;;13.70;65.16
56825;BME280;42705;50.326;18.772;2022-07-11T03:42:00;98648.44;;;13.69;65.30
56825;BME280;42705;50.326;18.772;2022-07-11T03:47:21;98641.89;;;13.77;65.43
56825;BME280;42705;50.326;18.772;2022-07-11T03:52:43;98647.23;;;13.85;65.57
56825;BME280;42705;50.326;18.772;2022-07-11T03:58:04;98643.33;;;13.98;65.47
56825;BME280;42705;50.326;18.772;2022-07-11T04:03:25;98643.55;;;14.09;65.32
56825;BME280;42705;50.326;18.772;2022-07-11T04:08:46;98647.88;;;14.22;65.20
56825;BME280;42705;50.326;18.772;2022-07-11T04:14:07;98649.40;;;14.29;65.05
56825;BME280;42705;50.326;18.772;2022-07-11T04:19:29;98647.23;;;14.28;64.93
56825;BME280;42705;50.326;18.772;2022-07-11T04:24:50;98656.97;;;14.28;64.88
56825;BME280;42705;50.326;18.772;2022-07-11T04:30:11;98653.38;;;14.41;64.90
56825;BME280;42705;50.326;18.772;2022-07-11T04:35:32;98642.72;;;14.55;64.75
56825;BME280;42705;50.326;18.772;2022-07-11T04:40:53;98646.69;;;14.64;64.52
56825;BME280;42705;50.326;18.772;2022-07-11T04:46:14;98656.12;;;14.70;64.30
56825;BME280;42705;50.326;18.772;2022-07-11T04:51:35;98663.05;;;14.71;63.96
56825;BME280;42705;50.326;18.772;2022-07-11T04:56:57;98663.05;;;14.71;63.96
56825;BME280;42705;50.326;18.772;2022-07-11T05:02:17;98666.67;;;14.70;63.76
56825;BME280;42705;50.326;18.772;2022-07-11T05:07:38;98663.39;;;14.76;63.71
56825;BME280;42705;50.326;18.772;2022-07-11T05:12:59;98665.70;;;14.84;63.59
56825;BME280;42705;50.326;18.772;2022-07-11T05:18:20;98666.37;;;14.86;63.42
56825;BME280;42705;50.326;18.772;2022-07-11T05:23:41;98665.05;;;14.86;63.32
56825;BME280;42705;50.326;18.772;2022-07-11T05:29:02;98674.45;;;14.80;63.00
56825;BME280;42705;50.326;18.772;2022-07-11T05:34:23;98680.02;;;14.73;62.81
56825;BME280;42705;50.326;18.772;2022-07-11T05:39:45;98673.05;;;14.64;62.85
56825;BME280;42705;50.326;18.772;2022-07-11T05:45:07;98676.14;;;14.51;62.85
56825;BME280;42705;50.326;18.772;2022-07-11T05:50:29;98677.77;;;14.43;62.78
56825;BME280;42705;50.326;18.772;2022-07-11T05:55:51;98675.46;;;14.44;62.83
56825;BME280;42705;50.326;18.772;2022-07-11T06:01:11;98678.75;;;14.42;62.62
56825;BME280;42705;50.326;18.772;2022-07-11T06:06:32;98676.13;;;14.46;62.47
56825;BME280;42705;50.326;18.772;2022-07-11T06:11:53;98674.17;;;14.57;62.57
56825;BME280;42705;50.326;18.772;2022-07-11T06:17:14;98675.58;;;14.73;62.25
56825;BME280;42705;50.326;18.772;2022-07-11T06:22:35;98682.04;;;14.83;61.86
56825;BME280;42705;50.326;18.772;2022-07-11T06:27:55;98679.88;;;14.87;61.45
56825;BME280;42705;50.326;18.772;2022-07-11T06:33:17;98677.25;;;14.95;61.23
56825;BME280;42705;50.326;18.772;2022-07-11T06:38:39;98668.53;;;14.99;60.85
56825;BME280;42705;50.326;18.772;2022-07-11T06:44:01;98676.63;;;15.05;60.49
56825;BME280;42705;50.326;18.772;2022-07-11T06:49:22;98677.77;;;15.11;60.33
56825;BME280;42705;50.326;18.772;2022-07-11T06:54:43;98678.45;;;15.30;60.13
56825;BME280;42705;50.326;18.772;2022-07-11T07:00:04;98677.77;;;15.65;59.59
56825;BME280;42705;50.326;18.772;2022-07-11T07:05:27;98675.41;;;15.99;58.66
56825;BME280;42705;50.326;18.772;2022-07-11T07:10:48;98677.61;;;16.27;57.86
56825;BME280;42705;50.326;18.772;2022-07-11T07:16:09;98681.02;;;16.48;57.37
56825;BME280;42705;50.326;18.772;2022-07-11T07:21:30;98680.32;;;16.55;56.50
56825;BME280;42705;50.326;18.772;2022-07-11T07:26:51;98677.33;;;16.58;56.02
56825;BME280;42705;50.326;18.772;2022-07-11T07:32:12;98691.22;;;16.56;55.82
56825;BME280;42705;50.326;18.772;2022-07-11T07:37:33;98682.98;;;16.46;55.53
56825;BME280;42705;50.326;18.772;2022-07-11T07:42:54;98684.31;;;16.51;54.85
56825;BME280;42705;50.326;18.772;2022-07-11T07:48:15;98670.66;;;16.66;54.48
56825;BME280;42705;50.326;18.772;2022-07-11T07:53:36;98672.61;;;16.72;54.30
56825;BME280;42705;50.326;18.772;2022-07-11T07:58:57;98681.45;;;16.56;54.23
56825;BME280;42705;50.326;18.772;2022-07-11T08:04:18;98676.58;;;16.41;54.32
56825;BME280;42705;50.326;18.772;2022-07-11T08:09:39;98670.11;;;16.43;54.22
56825;BME280;42705;50.326;18.772;2022-07-11T08:15:01;98667.58;;;16.54;54.66
56825;BME280;42705;50.326;18.772;2022-07-11T08:20:21;98664.78;;;16.56;54.00
56825;BME280;42705;50.326;18.772;2022-07-11T08:25:42;98653.02;;;16.58;53.53
56825;BME280;42705;50.326;18.772;2022-07-11T08:31:03;98649.64;;;16.73;52.89
56825;BME280;42705;50.326;18.772;2022-07-11T08:36:24;98638.12;;;16.61;52.44
56825;BME280;42705;50.326;18.772;2022-07-11T08:41:48;98638.12;;;16.61;52.44
56825;BME280;42705;50.326;18.772;2022-07-11T08:47:11;98644.13;;;16.51;52.54
56825;BME280;42705;50.326;18.772;2022-07-11T08:52:32;98642.67;;;16.48;52.72
56825;BME280;42705;50.326;18.772;2022-07-11T08:57:54;98634.88;;;16.51;52.35
56825;BME280;42705;50.326;18.772;2022-07-11T09:03:15;98610.83;;;16.65;52.09
56825;BME280;42705;50.326;18.772;2022-07-11T09:08:38;98610.51;;;16.87;51.70
56825;BME280;42705;50.326;18.772;2022-07-11T09:13:58;98615.20;;;17.04;51.23
56825;BME280;42705;50.326;18.772;2022-07-11T09:19:21;98613.92;;;17.00;51.02
56825;BME280;42705;50.326;18.772;2022-07-11T09:24:56;98600.17;;;17.05;50.77
56825;BME280;42705;50.326;18.772;2022-07-11T09:30:39;98601.57;;;17.31;50.46
56825;BME280;42705;50.326;18.772;2022-07-11T09:36:02;98617.80;;;17.47;49.49
56825;BME280;42705;50.326;18.772;2022-07-11T09:41:25;98621.33;;;17.58;49.14
56825;BME280;42705;50.326;18.772;2022-07-11T09:46:47;98637.58;;;17.55;49.20
56825;BME280;42705;50.326;18.772;2022-07-11T09:52:14;98641.44;;;17.33;49.40
56825;BME280;42705;50.326;18.772;2022-07-11T09:57:38;98720.84;;;16.78;50.18
56825;BME280;42705;50.326;18.772;2022-07-11T10:03:00;98707.63;;;15.90;52.39
56825;BME280;42705;50.326;18.772;2022-07-11T10:08:21;98715.73;;;15.31;54.03
56825;BME280;42705;50.326;18.772;2022-07-11T10:13:41;98702.68;;;15.09;55.24
56825;BME280;42705;50.326;18.772;2022-07-11T10:19:40;98693.12;;;15.24;56.64
56825;BME280;42705;50.326;18.772;2022-07-11T10:30:50;98674.72;;;16.10;57.28
56825;BME280;42705;50.326;18.772;2022-07-11T10:36:25;98659.39;;;16.41;57.23
56825;BME280;42705;50.326;18.772;2022-07-11T10:41:46;98648.40;;;16.56;57.28
56825;BME280;42705;50.326;18.772;2022-07-11T10:47:31;98639.77;;;16.62;57.35
56825;BME280;42705;50.326;18.772;2022-07-11T10:52:56;98639.41;;;16.66;57.05
56825;BME280;42705;50.326;18.772;2022-07-11T10:58:20;98633.12;;;16.67;56.67
56825;BME280;42705;50.326;18.772;2022-07-11T11:03:51;98638.13;;;16.89;56.77
56825;BME280;42705;50.326;18.772;2022-07-11T11:09:37;98652.71;;;17.31;55.97
56825;BME280;42705;50.326;18.772;2022-07-11T11:21:12;98676.91;;;17.05;55.17
56825;BME280;42705;50.326;18.772;2022-07-11T11:26:51;98663.89;;;16.68;55.91
56825;BME280;42705;50.326;18.772;2022-07-11T11:32:12;98689.17;;;16.26;56.10
56825;BME280;42705;50.326;18.772;2022-07-11T11:37:34;98689.33;;;15.60;56.31
56825;BME280;42705;50.326;18.772;2022-07-11T11:42:55;98745.74;;;15.17;57.62
56825;BME280;42705;50.326;18.772;2022-07-11T11:48:30;98752.74;;;14.88;58.69
56825;BME280;42705;50.326;18.772;2022-07-11T11:53:58;98757.34;;;14.78;59.29
56825;BME280;42705;50.326;18.772;2022-07-11T11:59:28;98740.85;;;14.75;59.75
56825;BME280;42705;50.326;18.772;2022-07-11T12:04:52;98725.39;;;14.93;59.75
56825;BME280;42705;50.326;18.772;2022-07-11T12:10:14;98701.55;;;15.28;59.70
56825;BME280;42705;50.326;18.772;2022-07-11T12:15:36;98682.20;;;15.77;59.62
56825;BME280;42705;50.326;18.772;2022-07-11T12:21:18;98691.14;;;16.37;59.23
56825;BME280;42705;50.326;18.772;2022-07-11T12:26:40;98694.17;;;16.88;58.69
56825;BME280;42705;50.326;18.772;2022-07-11T12:32:10;98695.48;;;17.39;58.42
56825;BME280;42705;50.326;18.772;2022-07-11T12:37:37;98711.03;;;17.81;57.69
56825;BME280;42705;50.326;18.772;2022-07-11T12:42:58;98708.09;;;18.25;56.67
56825;BME280;42705;50.326;18.772;2022-07-11T12:48:19;98711.10;;;18.51;56.40
56825;BME280;42705;50.326;18.772;2022-07-11T12:53:39;98712.59;;;19.13;55.28
56825;BME280;42705;50.326;18.772;2022-07-11T12:59:00;98718.00;;;19.70;54.69
56825;BME280;42705;50.326;18.772;2022-07-11T13:04:39;98713.45;;;20.20;53.15
56825;BME280;42705;50.326;18.772;2022-07-11T13:10:02;98681.39;;;20.35;51.60
56825;BME280;42705;50.326;18.772;2022-07-11T13:15:24;98686.39;;;20.59;51.29
56825;BME280;42705;50.326;18.772;2022-07-11T13:20:45;98679.09;;;21.05;50.41
56825;BME280;42705;50.326;18.772;2022-07-11T13:26:07;98686.40;;;21.68;50.47
56825;BME280;42705;50.326;18.772;2022-07-11T13:31:28;98700.58;;;22.34;48.18
56825;BME280;42705;50.326;18.772;2022-07-11T13:36:49;98708.37;;;23.27;46.08
56825;BME280;42705;50.326;18.772;2022-07-11T13:42:10;98708.39;;;23.87;44.84
56825;BME280;42705;50.326;18.772;2022-07-11T13:47:31;98702.59;;;24.25;43.33
56825;BME280;42705;50.326;18.772;2022-07-11T13:52:55;98701.53;;;24.35;42.64
56825;BME280;42705;50.326;18.772;2022-07-11T13:58:16;98723.88;;;24.04;42.11
56825;BME280;42705;50.326;18.772;2022-07-11T14:03:46;98710.53;;;23.27;42.49
56825;BME280;42705;50.326;18.772;2022-07-11T14:09:07;98707.78;;;22.34;43.06
56825;BME280;42705;50.326;18.772;2022-07-11T14:14:29;98708.53;;;21.68;43.85
56825;BME280;42705;50.326;18.772;2022-07-11T14:19:49;98717.55;;;21.67;43.73
56825;BME280;42705;50.326;18.772;2022-07-11T14:25:10;98699.86;;;23.05;42.87
56825;BME280;42705;50.326;18.772;2022-07-11T14:30:31;98699.70;;;24.57;41.64
56825;BME280;42705;50.326;18.772;2022-07-11T14:35:53;98704.42;;;26.15;40.09
56825;BME280;42705;50.326;18.772;2022-07-11T14:41:14;98711.30;;;25.99;39.45
56825;BME280;42705;50.326;18.772;2022-07-11T14:46:37;98691.58;;;28.07;37.38
56825;BME280;42705;50.326;18.772;2022-07-11T14:51:58;98691.10;;;27.54;37.55
56825;BME280;42705;50.326;18.772;2022-07-11T14:57:19;98688.82;;;26.41;37.51
56825;BME280;42705;50.326;18.772;2022-07-11T15:02:39;98679.87;;;25.85;37.63
56825;BME280;42705;50.326;18.772;2022-07-11T15:08:19;98681.31;;;24.79;37.54
56825;BME280;42705;50.326;18.772;2022-07-11T15:13:58;98676.92;;;23.54;38.10
56825;BME280;42705;50.326;18.772;2022-07-11T15:19:19;98682.92;;;23.18;38.68
56825;BME280;42705;50.326;18.772;2022-07-11T15:24:40;98674.25;;;23.54;38.57
56825;BME280;42705;50.326;18.772;2022-07-11T15:30:01;98668.77;;;23.77;38.87
56825;BME280;42705;50.326;18.772;2022-07-11T15:35:22;98661.59;;;25.04;38.08
56825;BME280;42705;50.326;18.772;2022-07-11T15:40:42;98670.02;;;24.98;37.90
56825;BME280;42705;50.326;18.772;2022-07-11T15:46:03;98680.22;;;24.59;38.25
56825;BME280;42705;50.326;18.772;2022-07-11T15:51:24;98684.67;;;24.07;39.13
56825;BME280;42705;50.326;18.772;2022-07-11T15:56:45;98707.64;;;22.74;40.16
56825;BME280;42705;50.326;18.772;2022-07-11T16:02:06;98704.64;;;21.64;41.42
56825;BME280;42705;50.326;18.772;2022-07-11T16:07:27;98709.39;;;20.73;42.26
56825;BME280;42705;50.326;18.772;2022-07-11T16:12:49;98700.85;;;20.18;43.46
56825;BME280;42705;50.326;18.772;2022-07-11T16:18:10;98700.59;;;20.24;43.88
56825;BME280;42705;50.326;18.772;2022-07-11T16:23:33;98704.22;;;20.58;44.13
56825;BME280;42705;50.326;18.772;2022-07-11T16:28:53;98700.97;;;20.70;44.26
56825;BME280;42705;50.326;18.772;2022-07-11T16:34:15;98696.58;;;21.04;44.21
56825;BME280;42705;50.326;18.772;2022-07-11T16:39:36;98689.11;;;21.97;43.42
56825;BME280;42705;50.326;18.772;2022-07-11T16:45:17;98688.94;;;22.97;42.42
56825;BME280;42705;50.326;18.772;2022-07-11T16:50:39;98703.80;;;23.02;41.34
56825;BME280;42705;50.326;18.772;2022-07-11T16:56:00;98706.03;;;22.37;41.19
56825;BME280;42705;50.326;18.772;2022-07-11T17:01:24;98702.58;;;21.60;41.26
56825;BME280;42705;50.326;18.772;2022-07-11T17:06:45;98715.20;;;20.97;42.15
56825;BME280;42705;50.326;18.772;2022-07-11T17:12:07;98725.77;;;20.46;43.03
56825;BME280;42705;50.326;18.772;2022-07-11T17:17:28;98735.75;;;20.02;44.14
56825;BME280;42705;50.326;18.772;2022-07-11T17:22:48;98759.97;;;19.52;45.16
56825;BME280;42705;50.326;18.772;2022-07-11T17:28:10;98762.55;;;19.13;46.04
56825;BME280;42705;50.326;18.772;2022-07-11T17:33:34;98763.42;;;18.84;46.69
56825;BME280;42705;50.326;18.772;2022-07-11T17:38:55;98761.55;;;18.47;47.03
56825;BME280;42705;50.326;18.772;2022-07-11T17:44:16;98762.70;;;18.19;47.65
56825;BME280;42705;50.326;18.772;2022-07-11T17:49:39;98750.02;;;17.91;48.35
56825;BME280;42705;50.326;18.772;2022-07-11T17:54:59;98744.52;;;17.54;49.45
56825;BME280;42705;50.326;18.772;2022-07-11T18:00:20;98748.86;;;17.28;50.41
56825;BME280;42705;50.326;18.772;2022-07-11T18:05:42;98740.59;;;17.03;51.49
56825;BME280;42705;50.326;18.772;2022-07-11T18:11:03;98743.42;;;16.93;52.26
56825;BME280;42705;50.326;18.772;2022-07-11T18:16:25;98748.94;;;16.79;52.90
56825;BME280;42705;50.326;18.772;2022-07-11T18:21:46;98754.45;;;16.74;53.58
56825;BME280;42705;50.326;18.772;2022-07-11T18:27:07;98758.09;;;16.73;54.17
56825;BME280;42705;50.326;18.772;2022-07-11T18:32:28;98760.59;;;16.66;54.54
56825;BME280;42705;50.326;18.772;2022-07-11T18:37:49;98755.34;;;16.58;54.94
56825;BME280;42705;50.326;18.772;2022-07-11T18:43:10;98781.66;;;16.43;55.50
56825;BME280;42705;50.326;18.772;2022-07-11T18:48:31;98790.92;;;16.43;55.59
56825;BME280;42705;50.326;18.772;2022-07-11T18:53:52;98789.63;;;16.34;55.62
56825;BME280;42705;50.326;18.772;2022-07-11T18:59:15;98778.73;;;16.21;55.62
56825;BME280;42705;50.326;18.772;2022-07-11T19:04:36;98784.86;;;16.09;55.93
56825;BME280;42705;50.326;18.772;2022-07-11T19:09:57;98791.15;;;16.04;56.15
56825;BME280;42705;50.326;18.772;2022-07-11T19:15:18;98799.25;;;16.06;56.26
56825;BME280;42705;50.326;18.772;2022-07-11T19:20:39;98800.41;;;16.12;56.48
56825;BME280;42705;50.326;18.772;2022-07-11T19:26:01;98796.09;;;16.19;56.51
56825;BME280;42705;50.326;18.772;2022-07-11T19:31:23;98794.27;;;16.20;56.43
56825;BME280;42705;50.326;18.772;2022-07-11T19:36:45;98801.72;;;16.16;56.47
56825;BME280;42705;50.326;18.772;2022-07-11T19:42:06;98799.57;;;16.12;56.54
56825;BME280;42705;50.326;18.772;2022-07-11T19:47:27;98804.35;;;16.08;56.59
56825;BME280;42705;50.326;18.772;2022-07-11T19:52:48;98796.09;;;16.07;56.59
56825;BME280;42705;50.326;18.772;2022-07-11T19:58:09;98790.66;;;16.04;56.67
56825;BME280;42705;50.326;18.772;2022-07-11T20:03:30;98786.03;;;16.06;56.73
56825;BME280;42705;50.326;18.772;2022-07-11T20:08:51;98788.82;;;16.09;56.91
56825;BME280;42705;50.326;18.772;2022-07-11T20:14:12;98799.22;;;15.82;57.86
56825;BME280;42705;50.326;18.772;2022-07-11T20:19:33;98799.22;;;15.82;57.86
56825;BME280;42705;50.326;18.772;2022-07-11T20:24:54;98796.41;;;15.71;58.50
56825;BME280;42705;50.326;18.772;2022-07-11T20:30:16;98809.80;;;15.65;59.08
56825;BME280;42705;50.326;18.772;2022-07-11T20:35:37;98817.54;;;15.67;59.66
56825;BME280;42705;50.326;18.772;2022-07-11T20:40:58;98813.58;;;15.67;60.00
56825;BME280;42705;50.326;18.772;2022-07-11T20:46:20;98809.28;;;15.66;60.38
56825;BME280;42705;50.326;18.772;2022-07-11T20:51:42;98803.86;;;15.67;60.58
56825;BME280;42705;50.326;18.772;2022-07-11T20:57:03;98802.36;;;15.60;60.89
56825;BME280;42705;50.326;18.772;2022-07-11T21:02:25;98812.26;;;15.54;61.20
56825;BME280;42705;50.326;18.772;2022-07-11T21:07:46;98814.72;;;15.47;61.48
56825;BME280;42705;50.326;18.772;2022-07-11T21:13:06;98822.81;;;15.42;61.76
56825;BME280;42705;50.326;18.772;2022-07-11T21:18:28;98813.72;;;15.44;62.01
56825;BME280;42705;50.326;18.772;2022-07-11T21:23:51;98818.01;;;15.37;62.13
56825;BME280;42705;50.326;18.772;2022-07-11T21:29:12;98822.77;;;15.29;62.25
56825;BME280;42705;50.326;18.772;2022-07-11T21:34:33;98823.25;;;15.16;62.34
56825;BME280;42705;50.326;18.772;2022-07-11T21:39:55;98830.80;;;15.11;62.68
56825;BME280;42705;50.326;18.772;2022-07-11T21:45:16;98826.83;;;15.07;62.80
56825;BME280;42705;50.326;18.772;2022-07-11T21:50:37;98820.68;;;14.94;62.89
56825;BME280;42705;50.326;18.772;2022-07-11T21:55:58;98823.48;;;14.88;62.96
56825;BME280;42705;50.326;18.772;2022-07-11T22:01:19;98828.58;;;14.90;63.06
56825;BME280;42705;50.326;18.772;2022-07-11T22:06:39;98835.81;;;14.84;62.93
56825;BME280;42705;50.326;18.772;2022-07-11T22:12:00;98828.47;;;14.69;62.96
56825;BME280;42705;50.326;18.772;2022-07-11T22:17:21;98825.98;;;14.68;62.99
56825;BME280;42705;50.326;18.772;2022-07-11T22:22:42;98828.52;;;14.73;63.12
56825;BME280;42705;50.326;18.772;2022-07-11T22:28:03;98834.00;;;14.80;63.12
56825;BME280;42705;50.326;18.772;2022-07-11T22:33:24;98828.22;;;14.81;63.01
56825;BME280;42705;50.326;18.772;2022-07-11T22:38:45;98834.67;;;14.82;63.01
56825;BME280;42705;50.326;18.772;2022-07-11T22:44:06;98835.68;;;14.89;63.04
56825;BME280;42705;50.326;18.772;2022-07-11T22:49:27;98834.20;;;14.95;63.06
56825;BME280;42705;50.326;18.772;2022-07-11T22:54:47;98837.17;;;14.96;63.02
56825;BME280;42705;50.326;18.772;2022-07-11T23:00:09;98837.49;;;14.93;62.92
56825;BME280;42705;50.326;18.772;2022-07-11T23:05:31;98839.80;;;14.92;63.04
56825;BME280;42705;50.326;18.772;2022-07-11T23:10:52;98837.80;;;14.86;63.10
56825;BME280;42705;50.326;18.772;2022-07-11T23:16:13;98836.11;;;14.76;63.17
56825;BME280;42705;50.326;18.772;2022-07-11T23:21:34;98828.25;;;14.58;63.26
56825;BME280;42705;50.326;18.772;2022-07-11T23:26:54;98835.42;;;14.44;63.56
56825;BME280;42705;50.326;18.772;2022-07-11T23:32:15;98836.51;;;14.33;63.89
56825;BME280;42705;50.326;18.772;2022-07-11T23:37:36;98838.45;;;14.27;64.14
56825;BME280;42705;50.326;18.772;2022-07-11T23:42:57;98832.02;;;14.29;64.45
56825;BME280;42705;50.326;18.772;2022-07-11T23:48:18;98833.20;;;14.31;64.70
56825;BME280;42705;50.326;18.772;2022-07-11T23:53:39;98832.34;;;14.26;64.64
56825;BME280;42705;50.326;18.772;2022-07-11T23:59:00;98829.54;;;14.24;64.95
